Flight Track Log - Related Links

Times and Time Zones

All times are in EDT time to prevent confusion due to time zone crossing. See the CTL312 flight status page for this flight to view local times or setup timezone preferences in your user account.

Time Position Orientation Groundspeed Altitude Reporting Facility
EDT Latitude Longitude Course Direction KTS MPH feet Rate Location/Type
Mon 09:55:52 PM 41.5708 -81.7239 312° West 154 177 2,100  Level Cleveland Center
Mon 09:56:46 PM 41.5847 -81.7714 291° West 155 178 2,800 730 Climbing Cleveland Center
Mon 09:57:47 PM 41.6031 -81.8217 296° West 154 177 3,500 703 Climbing Cleveland Center
Mon 09:58:54 PM 41.6211 -81.8775 293° West 155 178 4,300 677 Climbing Cleveland Center
Mon 10:00:00 PM 41.6414 -81.9419 293° West 158 182 5,000 709 Climbing Cleveland Center
Mon 10:01:00 PM 41.6933 -81.9428 312° West  Level Estimated
Mon 10:01:01 PM 41.6594 -81.9922 296° West 153 176 5,800  Level Cleveland Center
Mon 10:02:01 PM 41.6797 -82.0456 297° West 156 180 6,000 104 Climbing Cleveland Center
Mon 10:02:56 PM 41.6978 -82.0961 296° West 182 209 6,000  Level Cleveland Center
Mon 10:03:57 PM 41.7156 -82.1575 291° West 179 206 6,000  Level Cleveland Center
Mon 10:04:57 PM 41.7378 -82.2167 297° West 179 206 6,000  Level Cleveland Center
Mon 10:05:46 PM 41.7536 -82.2697 292° West 179 206 6,000  Level Cleveland Center
Mon 10:06:53 PM 41.7736 -82.3344 293° West 175 201 6,000  Level Cleveland Center
Mon 10:07:53 PM 41.7914 -82.3961 291° West 176 203 6,000  Level Cleveland Center
Mon 10:09:00 PM 41.8111 -82.4664 291° West 174 200 6,000  Level Cleveland Center
Mon 10:09:43 PM 41.8186 -82.5083 284° West 173 199 6,000  Level Cleveland Center
Mon 10:10:44 PM 41.8322 -82.5703 286° West 172 198 6,000  Level Cleveland Center
Mon 10:11:44 PM 41.8458 -82.6319 287° West 172 198 6,000  Level Cleveland Center
Mon 10:12:39 PM 41.8828 -82.6581 332° Northwest 174 200 6,000  Level Cleveland Center
Mon 10:13:40 PM 41.9261 -82.6819 338° Northwest 170 196 6,000  Level Cleveland Center
Mon 10:14:41 PM 41.9758 -82.7031 342° North 170 196 6,000  Level Cleveland Center
Mon 10:15:41 PM 42.0211 -82.7269 339° North 170 196 6,000  Level Cleveland Center
Mon 10:16:48 PM 42.0689 -82.7481 342° North 171 197 6,000 -234 Level Cleveland Center
Mon 10:17:49 PM 42.1183 -82.7694 342° North 182 209 5,500 -541 Descending Cleveland Center
Mon 10:18:50 PM 42.1681 -82.7936 340° North 191 220 4,900 -639 Descending Cleveland Center
Mon 10:19:51 PM 42.2197 -82.8178 341° North 192 221 4,200 -362 Descending Cleveland Center
Mon 10:20:46 PM 42.2608 -82.8417 337° Northwest 181 208 4,200 -103 Level Cleveland Center
Mon 10:21:47 PM 42.2956 -82.8822 319° Northwest 166 191 4,000 -94 Descending Cleveland Center
Mon 10:22:54 PM 42.3406 -82.9261 324° Northwest 168 193 4,000  Level Cleveland Center
Mon 10:23:48 PM 42.3731 -82.9581 324° Northwest 167 192 4,000 52 Level Cleveland Center
Mon 10:24:49 PM 42.4097 -82.9989 321° Northwest 168 193 4,100  Climbing Cleveland Center
Mon 10:25:56 PM 42.4528 -83.0400 325° Northwest 169 194 4,000 -246 Descending Cleveland Center
Mon 10:26:51 PM 42.4808 -83.0833 311° West 176 203 3,600 -466 Descending Cleveland Center
Mon 10:27:52 PM 42.5131 -83.1381 309° West 177 204 3,100 -298 Descending Cleveland Center
Mon 10:28:52 PM 42.5411 -83.1900 306° West 164 189 3,000 -157 Descending Cleveland Center
Mon 10:29:47 PM 42.5694 -83.2306 313° West 177 204 2,800 -310 Descending Cleveland Center
Mon 10:30:48 PM 42.6036 -83.2856 310° West 177 204 2,400 -375 Descending Cleveland Center
Mon 10:31:55 PM 42.6336 -83.3378 308° West 171 197 2,000 -347 Descending Cleveland Center
Mon 10:32:49 PM 42.6575 -83.3811 307° West 144 166 1,700 -333 Descending Cleveland Center

Login

Don't have an account? Register now (free) for customized features, flight alerts, and more!